createdAt,value
2022-08-08T00:00:54.390Z,4.55
2022-08-08T00:03:31.440Z,4.40
2022-08-08T00:06:10.153Z,4.05
2022-08-08T00:08:49.251Z,4.30
2022-08-08T00:11:21.054Z,3.88
2022-08-08T00:14:17.141Z,4.13
2022-08-08T00:17:23.596Z,4.18
2022-08-08T00:20:14.792Z,4.18
2022-08-08T00:22:51.753Z,4.17
2022-08-08T00:25:45.169Z,4.35
2022-08-08T00:28:35.828Z,4.38
2022-08-08T00:32:16.080Z,4.18
2022-08-08T00:35:05.834Z,4.30
2022-08-08T00:38:02.235Z,3.97
2022-08-08T00:41:13.012Z,3.72
2022-08-08T00:43:58.714Z,4.13
2022-08-08T00:47:14.082Z,4.32
2022-08-08T00:50:24.935Z,4.10
2022-08-08T00:53:31.909Z,4.00
2022-08-08T00:56:53.990Z,4.05
2022-08-08T00:59:54.917Z,4.38
2022-08-08T01:03:59.002Z,4.05
2022-08-08T01:06:08.730Z,4.18
2022-08-08T01:09:35.787Z,3.83
2022-08-08T01:12:36.957Z,3.55
2022-08-08T01:15:54.257Z,3.90
2022-08-08T01:19:13.501Z,4.20
2022-08-08T01:22:11.869Z,4.30
2022-08-08T01:25:14.471Z,4.07
2022-08-08T01:28:18.075Z,4.00
2022-08-08T01:30:53.618Z,3.63
2022-08-08T01:34:00.771Z,3.78
2022-08-08T01:36:48.789Z,3.72
2022-08-08T01:39:42.507Z,3.83
2022-08-08T01:42:35.884Z,3.85
2022-08-08T01:45:15.385Z,3.80
2022-08-08T01:48:16.743Z,3.53
2022-08-08T01:50:59.953Z,3.78
2022-08-08T01:54:11.257Z,3.70
2022-08-08T01:56:58.533Z,3.40
2022-08-08T02:00:02.013Z,4.07
2022-08-08T02:02:59.218Z,3.90
2022-08-08T02:05:58.661Z,3.83
2022-08-08T02:09:00.195Z,3.70
2022-08-08T02:11:59.415Z,4.22
2022-08-08T02:14:55.503Z,3.53
2022-08-08T02:17:36.447Z,3.28
2022-08-08T02:21:02.655Z,4.20
2022-08-08T02:23:39.713Z,3.97
2022-08-08T02:26:23.901Z,4.05
2022-08-08T02:29:18.776Z,4.00
2022-08-08T02:32:26.519Z,4.10
2022-08-08T02:35:08.375Z,3.90
2022-08-08T02:38:30.329Z,3.97
2022-08-08T02:42:03.870Z,3.92
2022-08-08T02:44:38.224Z,3.90
2022-08-08T02:47:39.368Z,3.85
2022-08-08T02:50:41.651Z,3.95
2022-08-08T02:53:45.559Z,3.97
2022-08-08T02:56:17.798Z,3.80
2022-08-08T02:58:48.740Z,3.80
2022-08-08T03:01:49.908Z,4.55
2022-08-08T03:05:04.714Z,3.45
2022-08-08T03:08:26.416Z,3.40
2022-08-08T03:11:59.819Z,3.88
2022-08-08T03:15:56.772Z,3.55
2022-08-08T03:18:16.886Z,3.75
2022-08-08T03:21:01.704Z,3.63
2022-08-08T03:23:54.792Z,3.57
2022-08-08T03:26:32.746Z,3.28
2022-08-08T03:29:18.844Z,3.53
2022-08-08T03:32:14.224Z,3.80
2022-08-08T03:34:42.066Z,3.58
2022-08-08T03:37:59.807Z,3.70
2022-08-08T03:40:10.798Z,3.70
2022-08-08T03:42:55.000Z,3.83
2022-08-08T03:46:06.977Z,3.40
2022-08-08T03:48:20.827Z,3.90
2022-08-08T03:51:07.372Z,3.60
2022-08-08T03:53:47.421Z,3.90
2022-08-08T03:56:31.783Z,3.45
2022-08-08T03:59:02.720Z,3.45
2022-08-08T04:02:12.674Z,3.53
2022-08-08T04:04:30.806Z,3.90
2022-08-08T04:07:00.912Z,3.75
2022-08-08T04:09:59.332Z,3.95
2022-08-08T04:12:20.362Z,3.78
2022-08-08T04:14:51.480Z,4.03
2022-08-08T04:17:45.888Z,3.70
2022-08-08T04:20:08.086Z,3.70
2022-08-08T04:22:36.782Z,3.42
2022-08-08T04:25:06.281Z,3.50
2022-08-08T04:28:02.692Z,3.72
2022-08-08T04:30:26.088Z,3.20
2022-08-08T04:32:54.444Z,3.45
2022-08-08T04:35:29.886Z,3.55
2022-08-08T04:38:01.161Z,3.58
2022-08-08T04:40:34.601Z,3.20
2022-08-08T04:43:03.370Z,3.23
2022-08-08T04:45:38.224Z,3.70
2022-08-08T04:48:06.745Z,3.53
2022-08-08T04:50:44.586Z,3.30
2022-08-08T04:54:30.293Z,3.50
2022-08-08T04:56:05.137Z,3.70
2022-08-08T04:58:35.248Z,3.20
2022-08-08T05:01:09.112Z,3.13
2022-08-08T05:04:10.586Z,3.15
2022-08-08T05:06:39.310Z,3.30
2022-08-08T05:09:08.528Z,3.53
2022-08-08T05:11:40.771Z,3.17
2022-08-08T05:14:14.193Z,3.10
2022-08-08T05:16:51.431Z,3.10
2022-08-08T05:20:11.852Z,3.30
2022-08-08T05:22:13.244Z,3.37
2022-08-08T05:24:48.066Z,3.83
2022-08-08T05:27:17.564Z,3.60
2022-08-08T05:29:51.851Z,4.22
2022-08-08T05:32:26.957Z,3.72
2022-08-08T05:35:04.464Z,3.23
2022-08-08T05:37:53.051Z,3.58
2022-08-08T05:40:42.280Z,3.20
2022-08-08T05:43:38.254Z,3.10
2022-08-08T05:46:08.142Z,3.10
2022-08-08T05:48:41.934Z,3.10
2022-08-08T05:51:16.001Z,3.75
2022-08-08T05:53:56.141Z,3.60
2022-08-08T05:56:42.554Z,3.50
2022-08-08T05:59:59.793Z,3.35
2022-08-08T06:02:43.673Z,3.27
2022-08-08T06:05:34.086Z,3.00
2022-08-08T06:08:09.553Z,3.00
2022-08-08T06:10:41.551Z,3.38
2022-08-08T06:13:12.371Z,3.15
2022-08-08T06:15:51.375Z,3.07
2022-08-08T06:18:30.283Z,2.95
2022-08-08T06:21:11.773Z,3.10
2022-08-08T06:24:02.233Z,3.08
2022-08-08T06:26:45.287Z,3.13
2022-08-08T06:29:56.895Z,2.73
2022-08-08T06:32:18.429Z,2.38
2022-08-08T06:35:11.972Z,2.60
2022-08-08T06:37:55.834Z,2.55
2022-08-08T06:40:32.097Z,2.70
2022-08-08T06:43:10.825Z,2.50
2022-08-08T06:46:08.826Z,3.13
2022-08-08T06:48:38.450Z,2.30
2022-08-08T06:51:08.596Z,2.58
2022-08-08T06:53:39.424Z,2.60
2022-08-08T06:56:10.981Z,2.07
2022-08-08T06:58:40.105Z,1.98
2022-08-08T07:02:18.172Z,2.33
2022-08-08T07:04:40.139Z,2.15
2022-08-08T07:07:19.742Z,1.80
2022-08-08T07:10:12.391Z,1.87
2022-08-08T07:12:49.906Z,1.80
2022-08-08T07:16:05.678Z,2.08
2022-08-08T07:18:55.931Z,3.42
2022-08-08T07:21:33.925Z,2.00
2022-08-08T07:24:14.326Z,2.03
2022-08-08T07:26:53.086Z,1.70
2022-08-08T07:30:02.419Z,1.67
2022-08-08T07:32:15.757Z,1.65
2022-08-08T07:35:00.170Z,2.00
2022-08-08T07:38:04.971Z,1.60
2022-08-08T07:40:33.967Z,1.65
2022-08-08T07:43:09.100Z,1.85
2022-08-08T07:46:04.935Z,2.00
2022-08-08T07:48:30.275Z,1.75
2022-08-08T07:51:01.440Z,1.77
2022-08-08T07:54:01.842Z,1.80
2022-08-08T07:56:40.622Z,1.45
2022-08-08T07:59:14.906Z,1.70
2022-08-08T08:02:34.377Z,1.60
2022-08-08T08:04:49.061Z,1.70
2022-08-08T08:07:31.724Z,1.60
2022-08-08T08:10:08.764Z,1.80
2022-08-08T08:12:47.538Z,1.73
2022-08-08T08:15:21.659Z,1.70
2022-08-08T08:17:57.827Z,1.80
2022-08-08T08:20:30.916Z,1.65
2022-08-08T08:23:02.386Z,1.85
2022-08-08T08:25:40.952Z,1.77
2022-08-08T08:28:21.053Z,1.90
2022-08-08T08:30:54.304Z,1.83
2022-08-08T08:33:25.863Z,1.70
2022-08-08T08:36:18.765Z,1.90
2022-08-08T08:38:49.442Z,1.80
2022-08-08T08:41:23.759Z,1.67
2022-08-08T08:44:13.423Z,1.70
2022-08-08T08:46:47.276Z,1.70
2022-08-08T08:49:20.800Z,1.70
2022-08-08T08:51:57.012Z,1.63
2022-08-08T08:54:32.423Z,1.90
2022-08-08T08:57:15.707Z,1.80
2022-08-08T09:00:00.322Z,2.05
2022-08-08T09:02:35.926Z,2.00
2022-08-08T09:05:13.897Z,1.70
2022-08-08T09:08:18.257Z,1.90
2022-08-08T09:10:48.113Z,1.80
2022-08-08T09:13:18.376Z,1.60
2022-08-08T09:16:03.940Z,1.88
2022-08-08T09:18:35.613Z,1.70
2022-08-08T09:21:59.846Z,2.20
2022-08-08T09:23:56.116Z,1.90
2022-08-08T09:26:51.691Z,1.90
2022-08-08T09:29:24.999Z,1.90
2022-08-08T09:32:12.114Z,1.85
2022-08-08T09:34:51.828Z,1.80
2022-08-08T09:37:58.267Z,1.80
2022-08-08T09:40:40.714Z,2.60
2022-08-08T09:43:24.057Z,2.03
2022-08-08T09:46:16.830Z,2.20
2022-08-08T09:48:54.729Z,2.90
2022-08-08T09:51:30.547Z,2.50
2022-08-08T09:54:37.374Z,2.20
2022-08-08T09:57:16.466Z,1.50
2022-08-08T10:00:20.992Z,2.15
2022-08-08T10:02:45.782Z,2.10
2022-08-08T10:05:25.748Z,2.33
2022-08-08T10:08:00.537Z,2.10
2022-08-08T10:10:31.906Z,2.53
2022-08-08T10:13:18.292Z,2.00
2022-08-08T10:16:01.161Z,2.20
2022-08-08T10:18:31.599Z,2.07
2022-08-08T10:21:24.868Z,2.22
2022-08-08T10:23:58.096Z,1.90
2022-08-08T10:26:52.459Z,2.38
2022-08-08T10:29:59.893Z,2.40
2022-08-08T10:32:39.163Z,2.30
2022-08-08T10:36:06.674Z,2.33
2022-08-08T10:38:07.998Z,1.70
2022-08-08T10:40:38.932Z,2.00
2022-08-08T10:43:07.236Z,2.20
2022-08-08T10:45:55.581Z,2.13
2022-08-08T10:48:56.245Z,1.80
2022-08-08T10:51:31.274Z,1.70
2022-08-08T10:54:02.529Z,1.70
2022-08-08T10:56:35.556Z,1.83
2022-08-08T10:59:14.120Z,1.60
2022-08-08T11:01:49.520Z,1.65
2022-08-08T11:04:38.492Z,1.83
2022-08-08T11:07:07.449Z,1.75
2022-08-08T11:09:47.330Z,1.70
2022-08-08T11:12:15.191Z,2.17
2022-08-08T11:14:54.761Z,1.77
2022-08-08T11:18:00.772Z,1.70
2022-08-08T11:20:17.821Z,1.77
2022-08-08T11:22:51.052Z,1.80
2022-08-08T11:25:46.214Z,1.97
2022-08-08T11:28:13.830Z,1.80
2022-08-08T11:30:50.440Z,1.80
2022-08-08T11:33:51.726Z,1.70
2022-08-08T11:36:13.436Z,1.70
2022-08-08T11:38:54.213Z,1.70
2022-08-08T11:41:24.910Z,1.70
2022-08-08T11:43:58.134Z,1.48
2022-08-08T11:46:28.089Z,1.58
2022-08-08T11:48:58.887Z,1.60
2022-08-08T11:51:38.093Z,1.73
2022-08-08T11:54:31.583Z,1.85
2022-08-08T11:57:13.964Z,1.63
2022-08-08T12:00:07.079Z,1.85
2022-08-08T12:02:51.202Z,1.77
2022-08-08T12:05:22.638Z,1.90
2022-08-08T12:07:55.960Z,2.20
2022-08-08T12:10:26.036Z,1.63
2022-08-08T12:13:09.761Z,1.88
2022-08-08T12:15:49.403Z,1.80
2022-08-08T12:18:20.914Z,1.83
2022-08-08T12:20:53.369Z,3.05
2022-08-08T12:23:43.862Z,2.10
2022-08-08T12:26:35.931Z,2.05
2022-08-08T12:29:36.530Z,1.90
2022-08-08T12:32:17.295Z,2.83
2022-08-08T12:35:01.235Z,1.90
2022-08-08T12:37:40.591Z,1.83
2022-08-08T12:40:22.642Z,1.83
2022-08-08T12:42:53.073Z,1.67
2022-08-08T12:45:59.517Z,1.80
2022-08-08T12:48:37.448Z,1.90
2022-08-08T12:51:11.260Z,2.30
2022-08-08T12:53:58.588Z,1.98
2022-08-08T12:56:39.593Z,1.83
2022-08-08T12:59:18.432Z,1.73
2022-08-08T13:01:56.619Z,1.55
2022-08-08T13:04:29.812Z,1.70
2022-08-08T13:07:03.034Z,1.48
2022-08-08T13:09:43.075Z,1.70
2022-08-08T13:12:30.041Z,2.30
2022-08-08T13:15:00.236Z,2.20
2022-08-08T13:18:07.873Z,2.40
2022-08-08T13:20:18.357Z,2.33
2022-08-08T13:22:46.887Z,2.65
2022-08-08T13:25:22.141Z,2.60
2022-08-08T13:27:56.812Z,2.20
2022-08-08T13:30:28.790Z,2.42
2022-08-08T13:32:57.801Z,2.08
2022-08-08T13:35:29.661Z,2.00
2022-08-08T13:38:13.094Z,2.37
2022-08-08T13:40:45.215Z,1.92
2022-08-08T13:43:17.514Z,2.40
2022-08-08T13:45:49.165Z,2.55
2022-08-08T13:48:25.804Z,2.30
2022-08-08T13:50:57.805Z,2.30
2022-08-08T13:53:59.829Z,2.10
2022-08-08T13:56:53.713Z,2.40
2022-08-08T13:59:33.313Z,2.00
2022-08-08T14:02:07.337Z,2.00
2022-08-08T14:04:49.332Z,1.90
2022-08-08T14:07:22.805Z,1.83
2022-08-08T14:10:05.920Z,2.10
2022-08-08T14:12:43.746Z,1.70
2022-08-08T14:15:46.198Z,1.67
2022-08-08T14:18:36.019Z,2.00
2022-08-08T14:21:15.321Z,1.75
2022-08-08T14:24:04.441Z,1.90
2022-08-08T14:26:46.659Z,2.00
2022-08-08T14:29:26.830Z,2.13
2022-08-08T14:32:10.643Z,1.87
2022-08-08T14:34:44.234Z,2.08
2022-08-08T14:37:18.036Z,1.70
2022-08-08T14:40:06.359Z,1.90
2022-08-08T14:42:55.132Z,1.92
2022-08-08T14:45:33.766Z,1.63
2022-08-08T14:48:17.798Z,2.05
2022-08-08T14:51:06.808Z,2.13
2022-08-08T14:53:55.216Z,2.03
2022-08-08T14:56:25.737Z,1.90
2022-08-08T14:58:54.860Z,1.77
2022-08-08T15:01:41.343Z,2.03
2022-08-08T15:04:11.424Z,1.70
2022-08-08T15:06:39.235Z,2.00
2022-08-08T15:09:10.063Z,1.90
2022-08-08T15:11:43.284Z,1.90
2022-08-08T15:14:15.385Z,1.90
2022-08-08T15:16:44.397Z,2.20
2022-08-08T15:19:14.886Z,2.10
2022-08-08T15:21:43.232Z,2.28
2022-08-08T15:24:13.624Z,2.20
2022-08-08T15:26:41.929Z,2.40
2022-08-08T15:29:09.404Z,2.00
2022-08-08T15:32:03.973Z,2.03
2022-08-08T15:34:31.523Z,2.38
2022-08-08T15:37:02.971Z,1.90
2022-08-08T15:39:38.592Z,1.90
2022-08-08T15:42:13.237Z,1.75
2022-08-08T15:44:46.330Z,1.98
2022-08-08T15:47:15.332Z,2.05
2022-08-08T15:49:49.173Z,2.30
2022-08-08T15:52:20.661Z,2.10
2022-08-08T15:54:51.816Z,2.40
2022-08-08T15:57:21.100Z,3.17
2022-08-08T16:00:05.136Z,1.92
2022-08-08T16:02:44.005Z,1.70
2022-08-08T16:05:20.242Z,2.03
2022-08-08T16:07:51.290Z,2.10
2022-08-08T16:13:28.299Z,1.90
2022-08-08T16:13:43.289Z,1.90
2022-08-08T16:15:59.708Z,2.10
2022-08-08T16:18:37.456Z,1.98
2022-08-08T16:21:20.534Z,2.33
2022-08-08T16:23:48.504Z,2.15
2022-08-08T16:26:19.263Z,2.10
2022-08-08T16:28:50.432Z,2.10
2022-08-08T16:31:19.706Z,2.20
2022-08-08T16:33:58.225Z,2.03
2022-08-08T16:36:33.645Z,2.60
2022-08-08T16:39:09.660Z,2.28
2022-08-08T16:41:50.273Z,2.00
2022-08-08T16:44:28.125Z,2.22
2022-08-08T16:47:16.959Z,1.83
2022-08-08T16:49:44.935Z,2.40
2022-08-08T16:55:05.350Z,2.42
2022-08-08T16:55:33.536Z,2.07
2022-08-08T16:58:15.785Z,2.10
2022-08-08T17:00:48.776Z,2.05
2022-08-08T17:03:18.148Z,2.35
2022-08-08T17:05:53.957Z,1.95
2022-08-08T17:08:23.707Z,3.50
2022-08-08T17:10:59.025Z,2.28
2022-08-08T17:13:41.087Z,2.40
2022-08-08T17:16:22.220Z,2.13
2022-08-08T17:18:52.133Z,2.90
2022-08-08T17:21:21.550Z,3.73
2022-08-08T17:24:01.499Z,2.90
2022-08-08T17:26:30.766Z,3.10
2022-08-08T17:29:04.109Z,2.30
2022-08-08T17:31:43.586Z,2.38
2022-08-08T17:34:48.155Z,2.73
2022-08-08T17:37:06.789Z,2.45
2022-08-08T17:40:04.945Z,2.22
2022-08-08T17:42:26.609Z,2.20
2022-08-08T17:44:54.415Z,2.30
2022-08-08T17:47:23.756Z,3.00
2022-08-08T17:50:00.769Z,3.33
2022-08-08T17:52:31.017Z,2.88
2022-08-08T17:54:58.863Z,2.67
2022-08-08T17:57:28.819Z,3.33
2022-08-08T18:00:02.817Z,2.77
2022-08-08T18:02:31.534Z,2.80
2022-08-08T18:05:04.426Z,2.08
2022-08-08T18:08:02.390Z,2.35
2022-08-08T18:10:31.410Z,2.42
2022-08-08T18:13:00.476Z,2.20
2022-08-08T18:15:28.382Z,2.05
2022-08-08T18:18:09.882Z,2.20
2022-08-08T18:20:59.334Z,2.10
2022-08-08T18:23:27.325Z,2.25
2022-08-08T18:26:01.461Z,2.40
2022-08-08T18:28:33.419Z,2.40
2022-08-08T18:31:18.839Z,2.80
2022-08-08T18:34:25.674Z,2.15
2022-08-08T18:36:33.507Z,2.10
2022-08-08T18:39:04.977Z,2.30
2022-08-08T18:41:51.924Z,2.00
2022-08-08T18:44:22.237Z,2.30
2022-08-08T18:46:58.018Z,2.22
2022-08-08T18:49:32.229Z,2.28
2022-08-08T18:52:08.823Z,2.50
2022-08-08T18:55:00.167Z,2.40
2022-08-08T18:57:41.250Z,2.15
2022-08-08T19:00:16.642Z,2.05
2022-08-08T19:02:56.137Z,2.25
2022-08-08T19:05:34.079Z,2.43
2022-08-08T19:08:25.570Z,2.17
2022-08-08T19:11:01.841Z,2.10
2022-08-08T19:13:52.750Z,2.30
2022-08-08T19:16:20.137Z,2.60
2022-08-08T19:19:01.842Z,2.30
2022-08-08T19:21:33.429Z,2.47
2022-08-08T19:24:39.441Z,2.00
2022-08-08T19:27:07.114Z,2.33
2022-08-08T19:29:42.179Z,2.35
2022-08-08T19:32:12.841Z,2.33
2022-08-08T19:34:49.451Z,2.50
2022-08-08T19:37:19.035Z,2.40
2022-08-08T19:40:14.738Z,2.45
2022-08-08T19:42:45.048Z,2.42
2022-08-08T19:45:13.997Z,2.60
2022-08-08T19:47:41.847Z,2.10
2022-08-08T19:50:14.894Z,2.22
2022-08-08T19:52:57.326Z,2.35
2022-08-08T19:55:27.427Z,2.50
2022-08-08T19:58:01.154Z,2.20
2022-08-08T20:00:32.998Z,2.33
2022-08-08T20:03:14.502Z,2.40
2022-08-08T20:06:13.363Z,2.55
2022-08-08T20:08:40.821Z,2.58
2022-08-08T20:11:15.400Z,2.57
2022-08-08T20:14:13.002Z,2.60
2022-08-08T20:16:35.217Z,2.55
2022-08-08T20:19:07.289Z,2.20
2022-08-08T20:21:37.040Z,2.58
2022-08-08T20:24:07.755Z,2.50
2022-08-08T20:26:38.350Z,2.47
2022-08-08T20:29:12.167Z,2.05
2022-08-08T20:32:06.826Z,2.20
2022-08-08T20:34:31.831Z,2.10
2022-08-08T20:37:03.858Z,2.40
2022-08-08T20:39:41.873Z,2.47
2022-08-08T20:42:29.327Z,2.35
2022-08-08T20:44:59.303Z,2.20
2022-08-08T20:47:28.846Z,2.40
2022-08-08T20:50:05.619Z,2.10
2022-08-08T20:52:33.905Z,1.90
2022-08-08T20:55:07.739Z,2.30
2022-08-08T20:57:51.523Z,2.30
2022-08-08T21:00:20.546Z,2.30
2022-08-08T21:02:53.172Z,2.23
2022-08-08T21:05:23.101Z,2.25
2022-08-08T21:08:36.931Z,1.90
2022-08-08T21:10:42.303Z,2.20
2022-08-08T21:13:10.337Z,2.20
2022-08-08T21:16:05.064Z,1.87
2022-08-08T21:18:28.025Z,2.15
2022-08-08T21:20:55.942Z,2.28
2022-08-08T21:23:25.265Z,1.98
2022-08-08T21:26:13.352Z,2.35
2022-08-08T21:28:56.054Z,2.00
2022-08-08T21:31:53.185Z,2.50
2022-08-08T21:34:18.479Z,2.40
2022-08-08T21:36:55.676Z,2.03
2022-08-08T21:39:41.501Z,2.40
2022-08-08T21:42:13.136Z,1.93
2022-08-08T21:44:58.769Z,2.55
2022-08-08T21:48:08.235Z,1.90
2022-08-08T21:50:15.850Z,2.40
2022-08-08T21:54:27.271Z,2.20
2022-08-08T21:56:19.421Z,2.13
2022-08-08T21:58:18.059Z,1.90
2022-08-08T22:00:45.609Z,1.90
2022-08-08T22:03:17.764Z,2.10
2022-08-08T22:05:45.785Z,2.08
2022-08-08T22:08:15.922Z,2.00
2022-08-08T22:10:52.389Z,2.40
2022-08-08T22:13:22.511Z,2.25
2022-08-08T22:15:58.741Z,2.20
2022-08-08T22:18:33.110Z,2.20
2022-08-08T22:21:14.085Z,2.03
2022-08-08T22:23:50.621Z,2.03
2022-08-08T22:26:29.295Z,1.95
2022-08-08T22:29:13.425Z,2.00
2022-08-08T22:32:02.114Z,2.28
2022-08-08T22:34:32.225Z,2.20
2022-08-08T22:37:00.378Z,2.10
2022-08-08T22:39:39.341Z,2.10
2022-08-08T22:42:26.979Z,2.20
2022-08-08T22:44:55.542Z,1.83
2022-08-08T22:47:23.804Z,1.93
2022-08-08T22:50:01.988Z,2.28
2022-08-08T22:52:33.798Z,2.13
2022-08-08T22:55:04.767Z,2.22
2022-08-08T22:57:44.325Z,2.08
2022-08-08T23:00:17.729Z,2.10
2022-08-08T23:02:50.418Z,1.88
2022-08-08T23:05:21.409Z,1.98
2022-08-08T23:07:57.142Z,2.08
2022-08-08T23:10:27.631Z,2.22
2022-08-08T23:12:55.236Z,1.90
2022-08-08T23:16:38.498Z,2.08
2022-08-08T23:18:12.370Z,2.17
2022-08-08T23:20:44.180Z,2.17
2022-08-08T23:23:12.695Z,2.47
2022-08-08T23:25:47.793Z,2.30
2022-08-08T23:28:16.377Z,2.00
2022-08-08T23:30:46.369Z,1.95
2022-08-08T23:33:20.910Z,1.65
2022-08-08T23:36:08.582Z,1.80
2022-08-08T23:38:44.431Z,2.07
2022-08-08T23:41:23.259Z,1.95
2022-08-08T23:43:56.452Z,1.90
2022-08-08T23:49:01.122Z,2.05
2022-08-08T23:49:15.611Z,2.20
2022-08-08T23:52:05.239Z,2.07
2022-08-08T23:54:43.374Z,2.10
2022-08-08T23:57:26.759Z,1.95
